createdAt,value
2017-11-10T00:00:43.745Z,8.4
2017-11-10T00:01:43.777Z,8.4
2017-11-10T00:02:43.787Z,8.37
2017-11-10T00:03:43.462Z,8.38
2017-11-10T00:06:43.869Z,8.41
2017-11-10T00:07:58.482Z,8.41
2017-11-10T00:08:43.895Z,8.41
2017-11-10T00:09:43.895Z,8.37
2017-11-10T00:10:43.908Z,8.34
2017-11-10T00:11:43.617Z,8.33
2017-11-10T00:13:43.982Z,8.43
2017-11-10T00:14:43.676Z,8.43
2017-11-10T00:15:44.003Z,8.37
2017-11-10T00:16:44.023Z,8.41
2017-11-10T00:17:44.046Z,8.44
2017-11-10T00:18:44.068Z,8.44
2017-11-10T00:19:44.090Z,8.36
2017-11-10T00:20:44.112Z,8.38
2017-11-10T00:21:44.116Z,8.37
2017-11-10T00:22:58.754Z,8.44
2017-11-10T00:23:44.156Z,8.43
2017-11-10T00:24:44.173Z,8.53
2017-11-10T00:25:44.198Z,8.41
2017-11-10T00:26:44.195Z,8.43
2017-11-10T00:27:43.898Z,8.41
2017-11-10T00:28:44.253Z,8.45
2017-11-10T00:29:44.277Z,8.5
2017-11-10T00:31:44.297Z,8.44
2017-11-10T00:32:44.326Z,8.44
2017-11-10T00:33:44.367Z,8.55
2017-11-10T00:34:58.961Z,8.45
2017-11-10T00:35:44.367Z,8.48
2017-11-10T00:36:44.397Z,8.52
2017-11-10T00:37:59.015Z,8.44
2017-11-10T00:39:44.453Z,8.53
2017-11-10T00:40:44.475Z,8.4
2017-11-10T00:41:44.153Z,8.44
2017-11-10T00:42:44.504Z,8.5
2017-11-10T00:43:44.512Z,8.44
2017-11-10T00:44:44.537Z,8.48
2017-11-10T00:45:59.169Z,8.45
2017-11-10T00:46:44.576Z,8.52
2017-11-10T00:47:44.600Z,8.56
2017-11-10T00:48:44.643Z,8.55
2017-11-10T00:49:59.229Z,8.55
2017-11-10T00:50:44.653Z,8.58
2017-11-10T00:51:44.644Z,8.58
2017-11-10T00:52:44.677Z,8.52
2017-11-10T00:53:44.683Z,8.53
2017-11-10T00:54:59.322Z,8.56
2017-11-10T00:55:44.732Z,8.52
2017-11-10T00:56:44.753Z,8.5
2017-11-10T00:57:44.772Z,8.44
2017-11-10T00:58:44.792Z,8.5
2017-11-10T00:59:44.791Z,8.41
2017-11-10T01:00:59.417Z,8.44
2017-11-10T01:01:44.835Z,8.45
2017-11-10T01:02:44.868Z,8.41
2017-11-10T01:04:44.884Z,8.41
2017-11-10T01:05:44.905Z,8.41
2017-11-10T01:06:44.940Z,8.37
2017-11-10T01:08:44.962Z,8.41
2017-11-10T01:09:44.988Z,8.4
2017-11-10T01:10:59.604Z,8.4
2017-11-10T01:11:45.021Z,8.41
2017-11-10T01:12:45.045Z,8.34
2017-11-10T01:14:44.747Z,8.43
2017-11-10T01:15:45.083Z,8.3
2017-11-10T01:16:45.106Z,8.43
2017-11-10T01:17:45.116Z,8.3
2017-11-10T01:18:44.829Z,8.45
2017-11-10T01:19:45.167Z,8.36
2017-11-10T01:20:45.178Z,8.41
2017-11-10T01:21:44.875Z,8.4
2017-11-10T01:22:45.226Z,8.38
2017-11-10T01:23:45.240Z,8.43
2017-11-10T01:24:45.264Z,8.48
2017-11-10T01:25:45.280Z,8.43
2017-11-10T01:26:59.895Z,8.45
2017-11-10T01:27:45.301Z,8.37
2017-11-10T01:28:45.334Z,8.3
2017-11-10T01:29:45.026Z,8.53
2017-11-10T01:30:45.027Z,8.44
2017-11-10T01:31:45.421Z,8.34
2017-11-10T01:33:45.403Z,8.4
2017-11-10T01:34:45.422Z,8.41
2017-11-10T01:35:45.464Z,8.44
2017-11-10T01:36:45.461Z,8.4
2017-11-10T01:37:45.483Z,8.4
2017-11-10T01:38:45.505Z,8.4
2017-11-10T01:39:45.513Z,8.34
2017-11-10T01:40:45.539Z,8.36
2017-11-10T01:41:45.565Z,8.4
2017-11-10T01:43:00.181Z,8.36
2017-11-10T01:43:45.585Z,8.33
2017-11-10T01:45:00.212Z,8.29
2017-11-10T01:45:45.650Z,8.28
2017-11-10T01:47:00.266Z,8.26
2017-11-10T01:47:45.673Z,8.2
2017-11-10T01:48:45.684Z,8.28
2017-11-10T01:49:45.700Z,8.2
2017-11-10T01:50:45.725Z,8.23
2017-11-10T01:52:00.347Z,8.12
2017-11-10T01:53:00.363Z,8.23
2017-11-10T01:53:45.766Z,8.26
2017-11-10T01:54:45.795Z,8.22
2017-11-10T01:55:45.808Z,8.2
2017-11-10T01:56:45.509Z,8.18
2017-11-10T01:58:00.446Z,8.15
2017-11-10T01:58:45.885Z,8.15
2017-11-10T01:59:45.877Z,8.2
2017-11-10T02:00:45.901Z,8.1
2017-11-10T02:01:45.593Z,8.11
2017-11-10T02:02:45.926Z,8.12
2017-11-10T02:03:45.954Z,8.15
2017-11-10T02:04:45.970Z,8.12
2017-11-10T02:06:00.587Z,8.11
2017-11-10T02:06:45.995Z,8.23
2017-11-10T02:07:46.034Z,8.11
2017-11-10T02:08:46.042Z,8.08
2017-11-10T02:09:46.090Z,8.04
2017-11-10T02:10:46.081Z,8.01
2017-11-10T02:11:46.089Z,7.98
2017-11-10T02:12:45.797Z,8.01
2017-11-10T02:13:46.140Z,8.1
2017-11-10T02:14:46.161Z,8.04
2017-11-10T02:15:45.842Z,8.15
2017-11-10T02:16:46.200Z,8.04
2017-11-10T02:17:46.205Z,8.04
2017-11-10T02:18:46.223Z,8.05
2017-11-10T02:19:46.252Z,8.04
2017-11-10T02:20:46.243Z,8.05
2017-11-10T02:21:46.306Z,8.08
2017-11-10T02:22:46.286Z,8.11
2017-11-10T02:23:46.309Z,8.04
2017-11-10T02:24:46.314Z,8
2017-11-10T02:26:46.363Z,8.01
2017-11-10T02:27:46.390Z,8.05
2017-11-10T02:28:46.403Z,8.01
2017-11-10T02:30:46.430Z,8.02
2017-11-10T02:32:46.155Z,8.02
2017-11-10T02:33:46.167Z,8.04
2017-11-10T02:35:01.119Z,8.05
2017-11-10T02:35:46.522Z,8.08
2017-11-10T02:36:46.552Z,8.01
2017-11-10T02:37:46.546Z,8.07
2017-11-10T02:38:46.281Z,8.05
2017-11-10T02:39:46.581Z,8.01
2017-11-10T02:40:46.611Z,7.97
2017-11-10T02:41:46.620Z,8.01
2017-11-10T02:42:46.660Z,7.92
2017-11-10T02:43:46.676Z,8
2017-11-10T02:44:46.366Z,8
2017-11-10T02:46:01.315Z,8.02
2017-11-10T02:46:46.707Z,7.95
2017-11-10T02:49:46.769Z,8.02
2017-11-10T02:50:46.808Z,8.04
2017-11-10T02:51:46.494Z,8.02
2017-11-10T02:53:01.423Z,8.02
2017-11-10T02:53:46.535Z,8.04
2017-11-10T02:55:46.895Z,8
2017-11-10T02:56:46.608Z,8.08
2017-11-10T02:57:46.937Z,8.01
2017-11-10T02:58:46.947Z,7.98
2017-11-10T03:00:01.556Z,8
2017-11-10T03:00:47.000Z,8.02
2017-11-10T03:02:01.604Z,7.97
2017-11-10T03:02:47.025Z,8.02
2017-11-10T03:03:47.018Z,8.02
2017-11-10T03:04:47.046Z,8.01
2017-11-10T03:05:47.072Z,8.08
2017-11-10T03:06:47.063Z,8.08
2017-11-10T03:07:47.095Z,8
2017-11-10T03:08:47.124Z,7.98
2017-11-10T03:09:46.812Z,8.04
2017-11-10T03:10:47.160Z,7.98
2017-11-10T03:11:47.167Z,7.97
2017-11-10T03:13:47.188Z,8.04
2017-11-10T03:14:47.217Z,7.89
2017-11-10T03:15:47.231Z,8.01
2017-11-10T03:16:47.256Z,7.95
2017-11-10T03:18:01.869Z,8.07
2017-11-10T03:18:47.284Z,8.01
2017-11-10T03:19:47.314Z,8.02
2017-11-10T03:20:47.331Z,7.98
2017-11-10T03:22:01.941Z,8.01
2017-11-10T03:22:47.363Z,8.11
2017-11-10T03:23:47.383Z,8
2017-11-10T03:24:47.414Z,7.98
2017-11-10T03:25:47.403Z,8
2017-11-10T03:26:47.425Z,7.98
2017-11-10T03:27:47.130Z,7.92
2017-11-10T03:28:47.450Z,8.01
2017-11-10T03:30:47.520Z,8.02
2017-11-10T03:31:47.552Z,8.07
2017-11-10T03:33:02.145Z,8.02
2017-11-10T03:33:47.580Z,8.02
2017-11-10T03:34:47.568Z,8.05
2017-11-10T03:35:47.267Z,8.04
2017-11-10T03:36:47.611Z,7.98
2017-11-10T03:37:47.644Z,7.9
2017-11-10T03:38:47.653Z,7.98
2017-11-10T03:39:47.667Z,8.01
2017-11-10T03:40:47.686Z,8.07
2017-11-10T03:41:47.736Z,7.98
2017-11-10T03:42:47.728Z,7.97
2017-11-10T03:43:47.742Z,8.01
2017-11-10T03:44:47.742Z,8.05
2017-11-10T03:45:47.769Z,8.04
2017-11-10T03:46:47.798Z,7.89
2017-11-10T03:47:47.799Z,7.89
2017-11-10T03:48:47.823Z,8
2017-11-10T03:49:47.840Z,8.01
2017-11-10T03:50:47.854Z,7.97
2017-11-10T03:51:47.863Z,7.98
2017-11-10T03:52:47.914Z,7.86
2017-11-10T03:53:47.588Z,7.89
2017-11-10T03:54:47.927Z,7.86
2017-11-10T03:56:02.541Z,7.89
2017-11-10T03:56:47.639Z,7.93
2017-11-10T03:58:47.682Z,8.02
2017-11-10T03:59:48.008Z,7.9
2017-11-10T04:00:48.041Z,7.85
2017-11-10T04:01:48.051Z,7.86
2017-11-10T04:02:47.756Z,7.98
2017-11-10T04:03:48.078Z,8.04
2017-11-10T04:05:02.720Z,7.85
2017-11-10T04:05:48.129Z,7.98
2017-11-10T04:06:48.163Z,7.89
2017-11-10T04:07:48.166Z,8.02
2017-11-10T04:09:02.779Z,7.95
2017-11-10T04:09:48.213Z,7.98
2017-11-10T04:10:48.227Z,8.1
2017-11-10T04:11:48.238Z,7.97
2017-11-10T04:12:47.924Z,7.98
2017-11-10T04:13:48.265Z,7.92
2017-11-10T04:14:48.294Z,7.97
2017-11-10T04:15:48.309Z,8
2017-11-10T04:17:02.928Z,7.93
2017-11-10T04:17:48.332Z,8.02
2017-11-10T04:18:48.361Z,7.92
2017-11-10T04:19:48.383Z,8.04
2017-11-10T04:21:02.990Z,8.01
2017-11-10T04:21:48.414Z,7.97
2017-11-10T04:24:48.483Z,7.9
2017-11-10T04:25:48.157Z,7.97
2017-11-10T04:26:48.499Z,7.98
2017-11-10T04:27:48.520Z,7.97
2017-11-10T04:28:48.558Z,7.92
2017-11-10T04:29:48.550Z,8
2017-11-10T04:30:48.234Z,8
2017-11-10T04:31:48.588Z,7.98
2017-11-10T04:33:03.212Z,8.07
2017-11-10T04:33:48.635Z,8
2017-11-10T04:35:03.246Z,8.04
2017-11-10T04:35:48.676Z,8
2017-11-10T04:37:03.271Z,7.98
2017-11-10T04:37:48.698Z,8.01
2017-11-10T04:38:48.741Z,7.93
2017-11-10T04:39:48.398Z,8
2017-11-10T04:40:48.754Z,8.1
2017-11-10T04:42:48.788Z,8.12
2017-11-10T04:43:48.793Z,7.98
2017-11-10T04:44:48.818Z,8.02
2017-11-10T04:45:48.831Z,8
2017-11-10T04:46:48.849Z,7.97
2017-11-10T04:47:48.862Z,8.07
2017-11-10T04:48:48.568Z,8.08
2017-11-10T04:49:48.902Z,8.02
2017-11-10T04:51:03.530Z,8.07
2017-11-10T04:52:03.548Z,8.01
2017-11-10T04:53:03.561Z,8.08
2017-11-10T04:53:49.316Z,8
2017-11-10T04:54:48.985Z,8.07
2017-11-10T04:55:49.032Z,8.01
2017-11-10T04:56:49.019Z,8.08
2017-11-10T04:57:49.038Z,8.1
2017-11-10T04:58:49.057Z,8.07
2017-11-10T05:00:49.103Z,8.05
2017-11-10T05:01:49.120Z,8.11
2017-11-10T05:02:49.136Z,8.07
2017-11-10T05:03:49.156Z,7.98
2017-11-10T05:05:03.782Z,8.04
2017-11-10T05:05:48.874Z,8.04
2017-11-10T05:06:49.215Z,8.01
2017-11-10T05:08:03.833Z,7.95
2017-11-10T05:08:49.254Z,8.01
2017-11-10T05:09:49.284Z,8.01
2017-11-10T05:10:49.291Z,8.08
2017-11-10T05:12:49.315Z,8.07
2017-11-10T05:13:49.353Z,8.15
2017-11-10T05:14:49.352Z,8.02
2017-11-10T05:15:49.382Z,8.12
2017-11-10T05:16:49.078Z,8.11
2017-11-10T05:17:49.423Z,8.07
2017-11-10T05:18:49.414Z,8.07
2017-11-10T05:19:49.108Z,8.08
2017-11-10T05:20:49.503Z,8.08
2017-11-10T05:21:49.483Z,8.15
2017-11-10T05:22:49.496Z,8.07
2017-11-10T05:23:49.526Z,8.1
2017-11-10T05:25:49.566Z,8.16
2017-11-10T05:26:49.566Z,8.26
2017-11-10T05:27:49.263Z,8.12
2017-11-10T05:28:49.593Z,8.28
2017-11-10T05:29:49.620Z,8.15
2017-11-10T05:30:49.641Z,8.15
2017-11-10T05:31:49.321Z,8.16
2017-11-10T05:32:49.685Z,8.25
2017-11-10T05:33:49.408Z,8.11
2017-11-10T05:34:49.713Z,8.12
2017-11-10T05:35:49.728Z,8.11
2017-11-10T05:36:49.741Z,8.15
2017-11-10T05:37:49.766Z,8.18
2017-11-10T05:38:49.794Z,8.25
2017-11-10T05:40:49.813Z,8.22
2017-11-10T05:41:49.828Z,8.2
2017-11-10T05:42:50.211Z,8.2
2017-11-10T05:43:49.882Z,8.29
2017-11-10T05:45:49.582Z,8.22
2017-11-10T05:46:49.939Z,8.2
2017-11-10T05:47:49.943Z,8.26
2017-11-10T05:48:49.633Z,8.23
2017-11-10T05:50:49.999Z,8.37
2017-11-10T05:52:04.626Z,8.38
2017-11-10T05:52:50.038Z,8.36
2017-11-10T05:53:49.723Z,8.37
2017-11-10T05:54:50.070Z,8.43
2017-11-10T05:56:04.695Z,8.26
2017-11-10T05:56:50.138Z,8.2
2017-11-10T05:57:50.120Z,8.36
2017-11-10T05:58:49.814Z,8.33
2017-11-10T05:59:50.162Z,8.26
2017-11-10T06:00:50.174Z,8.33
2017-11-10T06:01:50.202Z,8.43
2017-11-10T06:02:50.223Z,8.34
2017-11-10T06:03:50.218Z,8.34
2017-11-10T06:04:50.248Z,8.29
2017-11-10T06:05:50.273Z,8.37
2017-11-10T06:06:49.955Z,8.36
2017-11-10T06:07:50.300Z,8.34
2017-11-10T06:08:50.317Z,8.3
2017-11-10T06:09:50.348Z,8.23
2017-11-10T06:10:50.368Z,8.29
2017-11-10T06:12:04.972Z,8.28
2017-11-10T06:13:50.402Z,8.2
2017-11-10T06:14:50.411Z,8.25
2017-11-10T06:15:50.434Z,8.34
2017-11-10T06:16:50.504Z,8.38
2017-11-10T06:17:50.464Z,8.33
2017-11-10T06:19:05.100Z,8.34
2017-11-10T06:19:50.191Z,8.38
2017-11-10T06:20:50.542Z,8.36
2017-11-10T06:21:50.561Z,8.34
2017-11-10T06:22:50.556Z,8.34
2017-11-10T06:23:50.623Z,8.29
2017-11-10T06:24:50.606Z,8.36
2017-11-10T06:25:50.624Z,8.33
2017-11-10T06:26:50.637Z,8.29
2017-11-10T06:28:05.269Z,8.37
2017-11-10T06:28:50.665Z,8.34
2017-11-10T06:29:50.371Z,8.36
2017-11-10T06:30:50.711Z,8.4
2017-11-10T06:31:50.734Z,8.4
2017-11-10T06:32:50.434Z,8.33
2017-11-10T06:33:50.779Z,8.37
2017-11-10T06:34:50.769Z,8.38
2017-11-10T06:35:50.828Z,8.45
2017-11-10T06:36:50.824Z,8.44
2017-11-10T06:37:50.854Z,8.36
2017-11-10T06:38:50.872Z,8.4
2017-11-10T06:40:05.484Z,8.26
2017-11-10T06:40:50.932Z,8.4
2017-11-10T06:41:50.920Z,8.33
2017-11-10T06:43:05.213Z,8.36
2017-11-10T06:43:50.946Z,8.36
2017-11-10T06:45:05.567Z,8.38
2017-11-10T06:46:51.021Z,8.34
2017-11-10T06:48:05.632Z,8.41
2017-11-10T06:48:51.050Z,8.23
2017-11-10T06:49:50.728Z,8.41
2017-11-10T06:51:51.082Z,8.37
2017-11-10T06:53:51.127Z,8.3
2017-11-10T06:54:51.159Z,8.44
2017-11-10T06:55:51.166Z,8.37
2017-11-10T06:56:51.175Z,8.41
2017-11-10T06:57:51.206Z,8.37
2017-11-10T06:58:51.214Z,8.43
2017-11-10T06:59:51.229Z,8.4
2017-11-10T07:00:51.258Z,8.41
2017-11-10T07:01:50.941Z,8.45
2017-11-10T07:02:51.297Z,8.4
2017-11-10T07:03:51.306Z,8.45
2017-11-10T07:04:51.323Z,8.4
2017-11-10T07:05:51.358Z,8.37
2017-11-10T07:07:05.957Z,8.45
2017-11-10T07:07:51.053Z,8.47
2017-11-10T07:08:51.073Z,8.44
2017-11-10T07:09:51.408Z,8.45
2017-11-10T07:10:51.443Z,8.43
2017-11-10T07:11:51.144Z,8.38
2017-11-10T07:12:51.487Z,8.53
2017-11-10T07:14:06.089Z,8.47
2017-11-10T07:15:05.783Z,8.43
2017-11-10T07:15:51.523Z,8.4
2017-11-10T07:16:52.244Z,8.45
2017-11-10T07:17:51.551Z,8.48
2017-11-10T07:18:51.596Z,8.43
2017-11-10T07:20:51.616Z,8.43
2017-11-10T07:21:51.665Z,8.48
2017-11-10T07:22:51.638Z,8.53
2017-11-10T07:23:51.680Z,8.44
2017-11-10T07:24:51.686Z,8.43
2017-11-10T07:25:51.704Z,8.45
2017-11-10T07:26:51.928Z,8.38
2017-11-10T07:27:51.739Z,8.41
2017-11-10T07:28:51.763Z,8.5
2017-11-10T07:29:51.783Z,8.53
2017-11-10T07:31:06.072Z,8.53
2017-11-10T07:31:51.830Z,8.52
2017-11-10T07:32:51.822Z,8.38
2017-11-10T07:33:51.860Z,8.48
2017-11-10T07:34:51.878Z,8.56
2017-11-10T07:35:51.908Z,8.55
2017-11-10T07:36:51.920Z,8.5
2017-11-10T07:37:51.924Z,8.53
2017-11-10T07:38:51.932Z,8.55
2017-11-10T07:39:51.962Z,8.53
2017-11-10T07:40:51.974Z,8.5
2017-11-10T07:41:52.009Z,8.5
2017-11-10T07:42:52.014Z,8.58
2017-11-10T07:43:52.030Z,8.62
2017-11-10T07:44:52.049Z,8.48
2017-11-10T07:45:52.100Z,8.53
2017-11-10T07:47:06.696Z,8.56
2017-11-10T07:47:52.114Z,8.56
2017-11-10T07:48:52.175Z,8.56
2017-11-10T07:49:52.130Z,8.58
2017-11-10T07:51:06.757Z,8.52
2017-11-10T07:51:52.179Z,8.52
2017-11-10T07:52:52.192Z,8.58
2017-11-10T07:53:51.883Z,8.59
2017-11-10T07:54:52.221Z,8.48
2017-11-10T07:55:52.269Z,8.48
2017-11-10T07:57:06.880Z,8.55
2017-11-10T07:57:52.297Z,8.58
2017-11-10T07:58:52.302Z,8.44
2017-11-10T07:59:52.326Z,8.55
2017-11-10T08:00:52.686Z,8.55
2017-11-10T08:01:52.365Z,8.59
2017-11-10T08:03:06.657Z,8.66
2017-11-10T08:03:52.077Z,8.55
2017-11-10T08:04:52.082Z,8.63
2017-11-10T08:05:52.126Z,8.66
2017-11-10T08:06:52.467Z,8.61
2017-11-10T08:07:52.150Z,8.7
2017-11-10T08:08:52.158Z,8.66
2017-11-10T08:09:52.513Z,8.68
2017-11-10T08:11:07.118Z,8.61
2017-11-10T08:11:52.547Z,8.62
2017-11-10T08:12:52.546Z,8.63
2017-11-10T08:16:07.223Z,8.71
2017-11-10T08:16:52.635Z,8.65
2017-11-10T08:18:06.931Z,8.7
2017-11-10T08:18:52.680Z,8.59
2017-11-10T08:19:52.362Z,8.73
2017-11-10T08:20:52.711Z,8.71
2017-11-10T08:21:52.736Z,8.55
2017-11-10T08:22:52.756Z,8.62
2017-11-10T08:23:52.781Z,8.61
2017-11-10T08:24:52.463Z,8.55
2017-11-10T08:25:52.818Z,8.65
2017-11-10T08:26:52.821Z,8.71
2017-11-10T08:27:52.875Z,8.73
2017-11-10T08:28:52.534Z,8.77
2017-11-10T08:29:52.892Z,8.86
2017-11-10T08:30:52.566Z,8.81
2017-11-10T08:31:52.923Z,8.81
2017-11-10T08:33:07.530Z,8.91
2017-11-10T08:33:52.950Z,8.83
2017-11-10T08:34:52.645Z,8.94
2017-11-10T08:35:52.973Z,8.86
2017-11-10T08:36:53.006Z,8.95
2017-11-10T08:37:53.038Z,8.98
2017-11-10T08:38:53.042Z,8.99
2017-11-10T08:39:53.053Z,8.94
2017-11-10T08:40:53.084Z,8.91
2017-11-10T08:41:53.092Z,8.99
2017-11-10T08:42:53.127Z,8.95
2017-11-10T08:43:53.125Z,8.94
2017-11-10T08:44:53.164Z,9.13
2017-11-10T08:45:53.153Z,8.96
2017-11-10T08:46:53.196Z,8.99
2017-11-10T08:47:53.197Z,9.08
2017-11-10T08:50:07.839Z,9.01
2017-11-10T08:50:53.260Z,9.08
2017-11-10T08:51:52.963Z,9.08
2017-11-10T08:52:53.343Z,9.11
2017-11-10T08:54:53.334Z,9.02
2017-11-10T08:55:53.025Z,9.11
2017-11-10T08:56:53.371Z,8.98
2017-11-10T08:57:53.386Z,9.11
2017-11-10T08:58:53.412Z,8.98
2017-11-10T08:59:53.413Z,9.04
2017-11-10T09:00:53.428Z,9.02
2017-11-10T09:01:53.455Z,9.05
2017-11-10T09:02:53.479Z,9.14
2017-11-10T09:03:53.500Z,9.11
2017-11-10T09:04:53.508Z,9.17
2017-11-10T09:06:08.161Z,9.13
2017-11-10T09:06:53.556Z,9.02
2017-11-10T09:07:53.586Z,9.08
2017-11-10T09:08:53.596Z,9.05
2017-11-10T09:09:53.624Z,9.05
2017-11-10T09:10:53.655Z,9.02
2017-11-10T09:11:53.650Z,9.05
2017-11-10T09:12:53.676Z,9.11
2017-11-10T09:14:08.297Z,9.08
2017-11-10T09:15:53.737Z,9.04
2017-11-10T09:16:53.749Z,9.08
2017-11-10T09:17:53.757Z,9.05
2017-11-10T09:18:53.457Z,8.96
2017-11-10T09:19:53.785Z,9.14
2017-11-10T09:20:53.831Z,9.11
2017-11-10T09:22:08.442Z,9.02
2017-11-10T09:22:53.872Z,8.96
2017-11-10T09:23:53.879Z,9.01
2017-11-10T09:24:53.565Z,9.1
2017-11-10T09:25:53.925Z,9.01
2017-11-10T09:26:53.951Z,8.99
2017-11-10T09:27:53.982Z,8.94
2017-11-10T09:28:53.972Z,9.01
2017-11-10T09:29:54.013Z,8.95
2017-11-10T09:30:53.997Z,8.98
2017-11-10T09:31:54.019Z,8.96
2017-11-10T09:32:54.045Z,9.02
2017-11-10T09:33:54.068Z,8.96
2017-11-10T09:35:08.684Z,8.96
2017-11-10T09:35:54.105Z,9.05
2017-11-10T09:36:54.121Z,8.99
2017-11-10T09:38:08.738Z,8.91
2017-11-10T09:38:54.151Z,8.92
2017-11-10T09:39:54.176Z,8.99
2017-11-10T09:40:54.189Z,9.01
2017-11-10T09:41:54.217Z,9.13
2017-11-10T09:42:53.578Z,9.08
2017-11-10T09:43:54.266Z,9.11
2017-11-10T09:44:54.256Z,9.1
2017-11-10T09:45:53.959Z,8.96
2017-11-10T09:46:53.974Z,8.96
2017-11-10T09:47:54.321Z,9.1
2017-11-10T09:48:54.323Z,9.04
2017-11-10T09:49:54.352Z,9.08
2017-11-10T09:50:54.369Z,9.1
2017-11-10T09:53:09.027Z,8.95
2017-11-10T09:53:54.427Z,8.95
2017-11-10T09:54:54.460Z,8.94
2017-11-10T09:55:54.479Z,8.96
2017-11-10T09:57:09.083Z,9.1
2017-11-10T09:57:54.500Z,8.94
2017-11-10T09:58:54.526Z,8.96
2017-11-10T09:59:54.541Z,8.83
2017-11-10T10:00:54.553Z,8.89
2017-11-10T10:02:09.174Z,8.86
2017-11-10T10:02:54.616Z,8.84
2017-11-10T10:03:54.288Z,8.86
2017-11-10T10:04:54.639Z,8.89
2017-11-10T10:05:54.658Z,8.95
2017-11-10T10:06:54.676Z,8.89
2017-11-10T10:07:54.698Z,8.98
2017-11-10T10:08:54.386Z,8.95
2017-11-10T10:09:54.718Z,8.86
2017-11-10T10:10:54.742Z,8.87
2017-11-10T10:11:54.768Z,8.92
2017-11-10T10:12:54.791Z,8.81
2017-11-10T10:13:54.805Z,8.92
2017-11-10T10:14:54.824Z,8.96
2017-11-10T10:15:54.853Z,8.98
2017-11-10T10:16:54.854Z,8.91
2017-11-10T10:17:54.874Z,8.87
2017-11-10T10:19:54.913Z,8.92
2017-11-10T10:20:54.937Z,8.94
2017-11-10T10:21:54.964Z,8.84
2017-11-10T10:22:54.963Z,8.87
2017-11-10T10:24:09.591Z,8.87
2017-11-10T10:25:09.608Z,8.84
2017-11-10T10:25:55.008Z,8.81
2017-11-10T10:26:55.043Z,8.84
2017-11-10T10:27:55.062Z,8.81
2017-11-10T10:28:55.076Z,8.89
2017-11-10T10:29:55.097Z,8.86
2017-11-10T10:30:54.783Z,8.96
2017-11-10T10:31:54.813Z,8.98
2017-11-10T10:32:55.148Z,8.89
2017-11-10T10:33:55.178Z,9.01
2017-11-10T10:34:55.195Z,9.04
2017-11-10T10:35:54.892Z,8.95
2017-11-10T10:36:55.221Z,9.08
2017-11-10T10:37:54.913Z,9.08
2017-11-10T10:39:55.292Z,9.18
2017-11-10T10:41:09.897Z,9.21
2017-11-10T10:41:55.321Z,9.14
2017-11-10T10:42:54.680Z,9.17
2017-11-10T10:43:55.360Z,9.21
2017-11-10T10:44:55.387Z,9.2
2017-11-10T10:45:55.406Z,9.21
2017-11-10T10:46:55.413Z,9.18
2017-11-10T10:47:55.432Z,9.26
2017-11-10T10:48:55.455Z,9.28
2017-11-10T10:49:55.459Z,9.39
2017-11-10T10:50:55.495Z,9.33
2017-11-10T10:51:55.504Z,9.31
2017-11-10T10:52:55.534Z,9.35
2017-11-10T10:53:55.546Z,9.4
2017-11-10T10:54:55.567Z,9.36
2017-11-10T10:57:55.619Z,9.4
2017-11-10T10:59:10.229Z,9.47
2017-11-10T11:00:55.676Z,9.47
2017-11-10T11:01:55.691Z,9.46
2017-11-10T11:02:55.729Z,9.5
2017-11-10T11:03:55.739Z,9.43
2017-11-10T11:04:55.743Z,9.43
2017-11-10T11:06:10.372Z,9.58
2017-11-10T11:06:55.776Z,9.46
2017-11-10T11:07:55.469Z,9.43
2017-11-10T11:08:55.815Z,9.53
2017-11-10T11:10:55.890Z,9.56
2017-11-10T11:11:55.885Z,9.5
2017-11-10T11:13:55.920Z,9.42
2017-11-10T11:14:55.925Z,9.4
2017-11-10T11:15:55.948Z,9.58
2017-11-10T11:16:55.974Z,9.69
2017-11-10T11:17:55.989Z,9.74
2017-11-10T11:18:55.684Z,9.69
2017-11-10T11:19:56.016Z,9.79
2017-11-10T11:20:56.049Z,9.79
2017-11-10T11:22:56.074Z,9.74
2017-11-10T11:23:56.094Z,9.79
2017-11-10T11:24:55.805Z,9.78
2017-11-10T11:25:56.154Z,9.79
2017-11-10T11:26:56.172Z,9.83
2017-11-10T11:29:56.204Z,9.84
2017-11-10T11:30:56.226Z,9.75
2017-11-10T11:31:56.267Z,9.78
2017-11-10T11:32:55.952Z,9.71
2017-11-10T11:33:56.301Z,9.69
2017-11-10T11:34:56.300Z,9.74
2017-11-10T11:35:56.009Z,9.75
2017-11-10T11:36:56.347Z,9.89
2017-11-10T11:38:56.390Z,9.94
2017-11-10T11:40:56.090Z,9.96
2017-11-10T11:42:11.048Z,9.94
2017-11-10T11:42:56.128Z,9.91
2017-11-10T11:43:56.490Z,9.94
2017-11-10T11:45:10.784Z,9.96
2017-11-10T11:45:56.509Z,9.94
2017-11-10T11:47:56.554Z,9.96
2017-11-10T11:49:11.170Z,9.91
2017-11-10T11:49:56.587Z,9.93
2017-11-10T11:50:56.298Z,9.89
2017-11-10T11:51:56.629Z,9.78
2017-11-10T11:52:56.643Z,9.84
2017-11-10T11:53:56.671Z,9.83
2017-11-10T11:54:56.687Z,9.83
2017-11-10T11:56:56.754Z,9.83
2017-11-10T11:57:56.749Z,9.74
2017-11-10T11:58:56.756Z,9.74
2017-11-10T12:00:11.395Z,9.75
2017-11-10T12:01:11.423Z,9.81
2017-11-10T12:02:56.838Z,9.86
2017-11-10T12:03:56.853Z,9.84
2017-11-10T12:04:56.886Z,9.87
2017-11-10T12:05:56.908Z,9.91
2017-11-10T12:06:56.924Z,9.9
2017-11-10T12:07:56.934Z,9.84
2017-11-10T12:08:56.950Z,9.86
2017-11-10T12:09:57.007Z,9.83
2017-11-10T12:10:56.986Z,9.76
2017-11-10T12:13:11.641Z,9.79
2017-11-10T12:13:57.050Z,9.72
2017-11-10T12:14:57.055Z,9.78
2017-11-10T12:16:56.787Z,9.66
2017-11-10T12:17:57.164Z,9.68
2017-11-10T12:18:57.140Z,9.68
2017-11-10T12:19:57.191Z,9.57
2017-11-10T12:20:57.190Z,9.61
2017-11-10T12:22:11.797Z,9.57
2017-11-10T12:22:57.231Z,9.61
2017-11-10T12:23:57.443Z,9.57
2017-11-10T12:24:57.249Z,9.56
2017-11-10T12:25:57.275Z,9.46
2017-11-10T12:27:11.907Z,9.54
2017-11-10T12:27:57.302Z,9.54
2017-11-10T12:29:57.359Z,9.39
2017-11-10T12:30:57.381Z,9.46
2017-11-10T12:32:11.995Z,9.36
2017-11-10T12:32:57.416Z,9.42
2017-11-10T12:34:57.444Z,9.32
2017-11-10T12:35:57.475Z,9.33
2017-11-10T12:36:57.483Z,9.39
2017-11-10T12:37:57.504Z,9.36
2017-11-10T12:39:57.540Z,9.35
2017-11-10T12:40:57.560Z,9.32
2017-11-10T12:41:57.589Z,9.33
2017-11-10T12:42:57.591Z,9.32
2017-11-10T12:43:57.293Z,9.26
2017-11-10T12:44:57.647Z,9.23
2017-11-10T12:45:57.662Z,9.17
2017-11-10T12:46:57.693Z,9.21
2017-11-10T12:48:12.300Z,9.1
2017-11-10T12:48:57.706Z,9.17
2017-11-10T12:49:57.742Z,9.11
2017-11-10T12:50:57.423Z,9.17
2017-11-10T12:51:57.782Z,9.18
2017-11-10T12:52:57.793Z,9.24
2017-11-10T12:53:57.798Z,9.13
2017-11-10T12:54:57.819Z,9.14
2017-11-10T12:55:57.846Z,9.17
2017-11-10T12:56:57.884Z,9.2
2017-11-10T12:57:57.874Z,9.14
2017-11-10T12:59:57.930Z,9.04
2017-11-10T13:00:57.918Z,9.2
2017-11-10T13:01:57.944Z,9.13
2017-11-10T13:03:12.575Z,9.05
2017-11-10T13:03:57.976Z,9.15
2017-11-10T13:04:57.681Z,9.11
2017-11-10T13:05:58.014Z,9.04
2017-11-10T13:06:58.045Z,9.13
2017-11-10T13:07:58.075Z,9.11
2017-11-10T13:08:58.071Z,9.14
2017-11-10T13:09:57.769Z,8.95
2017-11-10T13:10:58.108Z,8.92
2017-11-10T13:11:58.134Z,8.95
2017-11-10T13:12:57.842Z,9.08
2017-11-10T13:13:58.185Z,9.1
2017-11-10T13:14:58.197Z,9.14
2017-11-10T13:15:58.218Z,9.08
2017-11-10T13:16:58.235Z,9.13
2017-11-10T13:17:58.258Z,9.04
2017-11-10T13:18:58.257Z,9.1
2017-11-10T13:20:58.306Z,9.05
2017-11-10T13:21:58.327Z,9.02
2017-11-10T13:23:12.941Z,9.08
2017-11-10T13:23:58.366Z,9.17
2017-11-10T13:24:58.362Z,9.13
2017-11-10T13:26:12.990Z,9.24
2017-11-10T13:26:58.429Z,9.21
2017-11-10T13:27:58.419Z,9.2
2017-11-10T13:29:13.073Z,9.05
2017-11-10T13:29:58.152Z,9.24
2017-11-10T13:31:58.531Z,9.29
2017-11-10T13:33:58.556Z,9.36
2017-11-10T13:35:13.165Z,9.33
2017-11-10T13:35:58.579Z,9.24
2017-11-10T13:36:58.631Z,9.24
2017-11-10T13:37:58.628Z,9.21
2017-11-10T13:38:58.625Z,9.26
2017-11-10T13:39:58.336Z,9.26
2017-11-10T13:40:58.675Z,9.2
2017-11-10T13:41:58.682Z,9.2
2017-11-10T13:42:58.714Z,9.24
2017-11-10T13:43:58.074Z,9.24
2017-11-10T13:44:58.758Z,9.31
2017-11-10T13:45:58.773Z,9.32
2017-11-10T13:46:58.780Z,9.4
2017-11-10T13:47:58.813Z,9.33
2017-11-10T13:48:58.832Z,9.32
2017-11-10T13:49:58.849Z,9.32
2017-11-10T13:51:13.472Z,9.24
2017-11-10T13:51:58.876Z,9.24
2017-11-10T13:52:58.567Z,9.21
2017-11-10T13:53:58.916Z,9.11
2017-11-10T13:54:58.935Z,9.13
2017-11-10T13:55:58.942Z,9.21
2017-11-10T13:57:58.995Z,9.18
2017-11-10T13:58:58.998Z,9.2
2017-11-10T13:59:59.018Z,9.11
2017-11-10T14:00:59.040Z,9.14
2017-11-10T14:01:59.070Z,9.18
2017-11-10T14:02:59.076Z,9.18
2017-11-10T14:03:59.112Z,9.21
2017-11-10T14:04:59.129Z,9.14
2017-11-10T14:05:59.145Z,9.14
2017-11-10T14:07:13.755Z,9.02
2017-11-10T14:07:59.196Z,9.08
2017-11-10T14:08:59.201Z,9.14
2017-11-10T14:09:59.216Z,9.1
2017-11-10T14:10:59.235Z,9.17
2017-11-10T14:12:59.271Z,9.1
2017-11-10T14:13:59.295Z,9.08
2017-11-10T14:14:59.316Z,9.15
2017-11-10T14:15:59.325Z,9.2
2017-11-10T14:17:13.952Z,9.13
2017-11-10T14:18:13.970Z,9.23
2017-11-10T14:18:59.391Z,9.14
2017-11-10T14:19:59.403Z,9.05
2017-11-10T14:20:59.414Z,9.23
2017-11-10T14:23:14.058Z,9.04
2017-11-10T14:23:59.150Z,9.01
2017-11-10T14:24:59.478Z,9.08
2017-11-10T14:25:59.496Z,9.04
2017-11-10T14:26:59.531Z,9.18
2017-11-10T14:27:59.548Z,9.01